Terminal Aerodrome Forecast
Issued by NWS

Home | Current Version | Previous Version | Text Only | Print | Product List | Glossary On
Versions: 1 2 3 4 5 6 7 8 9 10 11 12 13 14 15 16 17 18 19 20 21 22 23 24 25 26 27 28 29 30 31 32 33 34 35 36
000
FTUS41 KOKX 280541
TAFGON
TAF
KGON 280541Z 2806/2906 11006KT 1/2SM -DZ FG VV002
      TEMPO 2809/2812 1/4SM -DZ FG
     FM281200 16006KT 1/2SM -DZ FG VV002
     FM281400 22006KT 1SM -DZ BR OVC005
     FM281700 22009KT P6SM FEW007 BKN060
     FM281900 23009KT P6SM SCT250
     FM290000 VRB03KT P6SM FEW250=

USA.gov is the U.S. government's official web portal to all federal, state and local government web resources and services.